Time;durP1;ratioP1;P1;durP2;ratioP2;P2;SDS_P1;SDS_P2;PMS_P1;PMS_P2;Temp;Humidity;BMP_temperature;BMP_pressure;BME280_temperature;BME280_humidity;BME280_pressure;Samples;Min_cycle;Max_cycle;Signal;HPM_P1;HPM_P2
2021/08/29 00:00:15;;;;;;;1.20;1.20;;;;;;;15.17;66.13;99205.78;4885822;29;20305;-86
2021/08/29 00:02:42;;;;;;;1.30;1.20;;;;;;;15.16;66.56;99212.25;4895469;29;20661;-85
2021/08/29 00:05:09;;;;;;;1.10;1.10;;;;;;;15.14;66.93;99215.22;4883005;29;20292;-89
2021/08/29 00:07:36;;;;;;;1.33;1.23;;;;;;;15.20;66.76;99227.69;4867678;29;20236;-87
2021/08/29 00:10:03;;;;;;;1.83;1.30;;;;;;;15.11;67.05;99215.75;4867507;29;20234;-81
2021/08/29 00:12:30;;;;;;;1.23;1.13;;;;;;;15.05;66.91;99203.28;4887368;29;20231;-85
2021/08/29 00:14:57;;;;;;;1.40;1.30;;;;;;;15.16;66.14;99201.47;4902025;29;20327;-84
2021/08/29 00:17:24;;;;;;;1.50;1.40;;;;;;;15.21;66.13;99205.00;4893887;29;20239;-83
2021/08/29 00:19:50;;;;;;;1.40;1.30;;;;;;;15.22;66.33;99203.09;4890644;29;20263;-86
2021/08/29 00:22:17;;;;;;;1.50;1.40;;;;;;;15.18;66.87;99218.19;4870833;29;20256;-85
2021/08/29 00:24:44;;;;;;;1.40;1.30;;;;;;;15.21;66.41;99213.09;4882975;29;20628;-84
2021/08/29 00:27:11;;;;;;;1.50;1.40;;;;;;;15.25;66.04;99208.00;4875274;29;20252;-85
2021/08/29 00:29:38;;;;;;;1.53;1.43;;;;;;;15.15;66.41;99205.25;4852491;29;20732;-85
2021/08/29 00:32:05;;;;;;;2.93;1.70;;;;;;;15.20;66.72;99213.38;4848425;29;20498;-84
2021/08/29 00:34:32;;;;;;;1.50;1.40;;;;;;;15.20;66.67;99216.88;4865044;29;20238;-85
2021/08/29 00:36:59;;;;;;;1.83;1.73;;;;;;;15.14;66.79;99215.22;4864854;29;20591;-87
2021/08/29 00:39:26;;;;;;;1.57;1.47;;;;;;;15.16;67.21;99221.19;4864773;29;20236;-85
2021/08/29 00:41:52;;;;;;;1.80;1.70;;;;;;;15.14;66.88;99206.31;4880011;29;20697;-90
2021/08/29 00:44:19;;;;;;;1.73;1.63;;;;;;;15.11;67.20;99206.81;4881762;29;20220;-86
2021/08/29 00:46:47;;;;;;;1.97;1.87;;;;;;;15.19;67.24;99217.13;4883713;29;20240;-86
2021/08/29 00:49:18;;;;;;;1.90;1.80;;;;;;;15.12;67.46;99205.72;4867706;29;20246;-86
2021/08/29 00:51:50;;;;;;;2.13;1.97;;;;;;;15.10;67.47;99197.91;4882857;29;20241;-88
2021/08/29 00:54:17;;;;;;;2.00;1.90;;;;;;;15.22;66.63;99195.00;4897541;29;20236;-85
2021/08/29 00:56:44;;;;;;;2.43;2.23;;;;;;;15.35;66.44;99219.66;4883412;29;20229;-85
2021/08/29 00:59:12;;;;;;;2.30;2.20;;;;;;;15.29;67.01;99201.00;4897756;29;20645;-85
2021/08/29 01:01:43;;;;;;;2.20;2.10;;;;;;;15.27;66.92;99209.34;4867834;29;20240;-84
2021/08/29 01:04:15;;;;;;;2.50;2.30;;;;;;;15.33;67.08;99208.31;4867986;29;20578;-82
2021/08/29 01:06:53;;;;;;;2.10;2.00;;;;;;;15.22;67.76;99198.53;4869173;29;20983;-87
2021/08/29 01:09:36;;;;;;;2.50;2.30;;;;;;;15.29;67.33;99217.22;4872400;29;20236;-85
2021/08/29 01:12:06;;;;;;;2.13;2.03;;;;;;;15.22;66.86;99198.53;4867746;29;20248;-80
2021/08/29 01:14:44;;;;;;;2.47;2.27;;;;;;;15.52;66.33;99211.44;4876461;29;20247;-81
2021/08/29 01:18:04;;;;;;;2.93;2.63;;;;;;;15.50;66.32;99221.66;4895425;29;20219;-81
2021/08/29 01:21:09;;;;;;;2.70;2.50;;;;;;;15.54;66.72;99206.56;4908936;29;20240;-82
2021/08/29 01:23:58;;;;;;;2.77;2.53;;;;;;;15.46;66.77;99214.31;4895885;29;20239;-81
2021/08/29 01:27:35;;;;;;;2.83;2.63;;;;;;;15.35;67.18;99208.88;4856305;29;20227;-82
2021/08/29 01:30:12;;;;;;;3.13;2.50;;;;;;;15.45;66.57;99208.13;4861386;29;20225;-82
2021/08/29 01:32:41;;;;;;;3.00;2.80;;;;;;;15.34;67.07;99193.75;4859375;29;20230;-84
2021/08/29 01:35:34;;;;;;;3.37;2.80;;;;;;;15.43;66.59;99202.19;4840527;29;20244;-83
2021/08/29 01:38:08;;;;;;;3.27;2.90;;;;;;;15.30;66.74;99194.56;4848804;29;20323;-88
2021/08/29 01:40:35;;;;;;;3.27;2.97;;;;;;;15.36;66.60;99205.09;4857538;29;20234;-85
2021/08/29 01:43:04;;;;;;;2.70;2.50;;;;;;;15.34;66.58;99198.34;4842040;29;20226;-85
2021/08/29 01:45:32;;;;;;;3.00;2.80;;;;;;;15.37;67.05;99209.44;4827976;29;20285;-87
2021/08/29 01:47:59;;;;;;;3.03;2.83;;;;;;;15.37;66.89;99206.72;4856869;29;20321;-89
2021/08/29 01:50:36;;;;;;;3.27;2.97;;;;;;;15.19;66.93;99184.75;4853304;29;20320;-84
2021/08/29 01:53:12;;;;;;;3.00;2.73;;;;;;;15.18;66.87;99170.44;4837932;29;20261;-86
2021/08/29 01:56:19;;;;;;;3.00;2.80;;;;;;;15.42;66.60;99205.94;4863031;29;20241;-81
2021/08/29 01:58:59;;;;;;;2.80;2.60;;;;;;;15.37;66.74;99200.50;4868016;29;20301;-85
2021/08/29 02:01:32;;;;;;;3.00;2.80;;;;;;;15.39;66.39;99199.19;4849326;29;20270;-82
2021/08/29 02:04:07;;;;;;;3.37;2.80;;;;;;;15.50;66.35;99194.66;4862727;29;20270;-82
2021/08/29 02:06:42;;;;;;;3.10;2.90;;;;;;;15.46;66.10;99196.25;4872252;29;20226;-84
2021/08/29 02:09:10;;;;;;;3.67;2.67;;;;;;;15.44;66.44;99207.28;4848834;29;20233;-87
2021/08/29 02:11:46;;;;;;;2.93;2.50;;;;;;;15.44;66.44;99195.72;4845077;29;20248;-87
2021/08/29 02:14:26;;;;;;;3.07;2.80;;;;;;;15.34;66.97;99179.44;4848227;29;20314;-87
2021/08/29 02:16:53;;;;;;;3.10;2.90;;;;;;;15.33;66.83;99173.25;4863050;29;20245;-88
2021/08/29 02:19:33;;;;;;;3.10;2.67;;;;;;;15.37;66.84;99187.03;4862834;29;20293;-82
2021/08/29 02:22:03;;;;;;;2.90;2.70;;;;;;;15.25;67.63;99186.41;4832716;29;20237;-87
2021/08/29 02:24:32;;;;;;;3.17;2.97;;;;;;;15.14;67.69;99176.63;4848140;29;20240;-85
2021/08/29 02:27:03;;;;;;;3.40;3.10;;;;;;;15.02;68.08;99168.72;4854808;29;20600;-86
2021/08/29 02:29:31;;;;;;;2.90;2.70;;;;;;;15.14;68.42;99182.84;4865678;29;20236;-86
2021/08/29 02:31:58;;;;;;;3.20;3.00;;;;;;;15.07;68.47;99176.84;4895469;29;20646;-83
2021/08/29 02:34:25;;;;;;;3.40;3.20;;;;;;;14.95;68.29;99163.56;4868750;29;20261;-90
2021/08/29 02:36:58;;;;;;;3.13;2.83;;;;;;;14.97;68.54;99174.09;4884111;29;20656;-83
2021/08/29 02:39:38;;;;;;;3.20;3.00;;;;;;;14.96;68.84;99175.16;4884080;29;20652;-87
2021/08/29 02:42:07;;;;;;;3.30;3.00;;;;;;;14.95;69.04;99178.91;4899084;29;20263;-83
2021/08/29 02:44:40;;;;;;;3.23;3.00;;;;;;;14.90;68.97;99179.69;4854891;29;20283;-82
2021/08/29 02:47:08;;;;;;;3.43;3.23;;;;;;;14.83;69.53;99162.94;4835354;29;20292;-87
2021/08/29 02:49:35;;;;;;;3.27;3.07;;;;;;;14.75;69.44;99163.38;4873087;29;20585;-87
2021/08/29 02:52:03;;;;;;;3.40;3.20;;;;;;;14.76;69.71;99175.81;4880041;29;20243;-86
2021/08/29 02:54:33;;;;;;;3.40;3.10;;;;;;;14.71;69.74;99159.59;4880276;29;20315;-86
2021/08/29 02:57:00;;;;;;;2.73;2.53;;;;;;;14.68;70.02;99173.59;4880949;29;20678;-87
2021/08/29 02:59:27;;;;;;;3.17;2.97;;;;;;;14.58;70.32;99161.91;4899266;29;20236;-85
2021/08/29 03:01:54;;;;;;;3.20;2.90;;;;;;;14.63;70.14;99183.50;4853254;29;20541;-84
2021/08/29 03:04:28;;;;;;;3.13;2.93;;;;;;;14.61;70.26;99172.97;4869305;29;20251;-84
2021/08/29 03:06:57;;;;;;;3.10;2.90;;;;;;;14.62;70.14;99171.09;4853511;29;20236;-83
2021/08/29 03:09:24;;;;;;;3.00;2.80;;;;;;;14.58;70.34;99172.69;4864445;29;20229;-86
2021/08/29 03:11:52;;;;;;;3.20;3.00;;;;;;;14.60;69.93;99175.94;4899082;29;20648;-85
2021/08/29 03:14:41;;;;;;;3.37;3.07;;;;;;;14.58;70.30;99178.06;4886765;29;20228;-87
2021/08/29 03:17:11;;;;;;;2.90;2.70;;;;;;;14.60;70.39;99176.75;4899245;29;21261;-89
2021/08/29 03:19:44;;;;;;;3.07;2.87;;;;;;;14.48;70.81;99174.22;4884580;29;20238;-86
2021/08/29 03:22:25;;;;;;;3.10;2.90;;;;;;;14.60;70.18;99179.47;4870231;29;20227;-87
2021/08/29 03:24:55;;;;;;;3.47;3.17;;;;;;;14.63;69.71;99168.16;4884188;29;20630;-87
2021/08/29 03:27:22;;;;;;;3.10;2.80;;;;;;;14.56;70.00;99174.84;4868408;29;20236;-85
2021/08/29 03:29:50;;;;;;;3.50;2.93;;;;;;;14.49;70.10;99178.53;4865558;29;20236;-88
2021/08/29 03:32:19;;;;;;;3.40;3.10;;;;;;;14.49;70.10;99175.84;4864882;29;20240;-89
2021/08/29 03:34:47;;;;;;;3.10;2.90;;;;;;;14.47;69.91;99174.47;4865324;29;20264;-87
2021/08/29 03:37:13;;;;;;;3.40;3.10;;;;;;;14.43;70.23;99184.13;4865355;29;20585;-87
2021/08/29 03:39:46;;;;;;;2.90;2.70;;;;;;;14.57;69.88;99184.53;4860296;29;20227;-85
2021/08/29 03:42:15;;;;;;;3.20;3.00;;;;;;;14.48;69.98;99170.72;4852761;29;20223;-85
2021/08/29 03:44:44;;;;;;;3.10;2.83;;;;;;;14.48;69.63;99179.63;4868530;29;20238;-88
2021/08/29 03:47:11;;;;;;;3.10;2.90;;;;;;;14.46;70.33;99175.56;4861867;29;20225;-87
2021/08/29 03:49:39;;;;;;;3.77;3.27;;;;;;;14.39;69.86;99156.06;4852686;29;20235;-85
2021/08/29 03:52:08;;;;;;;3.13;2.93;;;;;;;14.47;70.39;99177.16;4868093;29;20250;-86
2021/08/29 03:54:58;;;;;;;3.20;3.00;;;;;;;14.40;70.41;99177.38;4874503;29;20318;-86
2021/08/29 03:57:25;;;;;;;3.17;2.90;;;;;;;14.39;70.08;99183.03;4868100;29;20290;-86
2021/08/29 03:59:53;;;;;;;3.43;3.20;;;;;;;14.39;69.97;99169.53;4868281;29;20522;-89
2021/08/29 04:02:20;;;;;;;3.20;3.00;;;;;;;14.39;70.00;99178.44;4867384;29;20246;-87
2021/08/29 04:04:47;;;;;;;3.40;3.10;;;;;;;14.49;69.97;99183.94;4868055;29;20244;-89
2021/08/29 04:07:14;;;;;;;3.00;2.80;;;;;;;14.51;69.74;99172.91;4886564;29;20268;-85
2021/08/29 04:09:56;;;;;;;3.23;3.03;;;;;;;14.53;69.71;99158.09;4873506;29;20631;-85
2021/08/29 04:12:28;;;;;;;3.23;3.03;;;;;;;14.58;69.76;99176.19;4886761;29;20238;-85
2021/08/29 04:15:28;;;;;;;3.63;3.33;;;;;;;14.56;69.44;99170.22;4859803;29;20639;-87
2021/08/29 04:17:54;;;;;;;3.50;3.30;;;;;;;14.62;69.41;99182.69;4887561;29;20243;-85
2021/08/29 04:20:21;;;;;;;3.90;3.60;;;;;;;14.54;69.52;99170.50;4886194;29;20242;-85
2021/08/29 04:22:48;;;;;;;3.60;3.40;;;;;;;14.66;69.06;99178.41;4856088;29;20648;-83
2021/08/29 04:25:16;;;;;;;3.43;3.23;;;;;;;14.63;68.92;99175.44;4886600;29;20242;-86
2021/08/29 04:27:43;;;;;;;3.33;3.03;;;;;;;14.73;68.77;99186.31;4886850;29;20227;-85
2021/08/29 04:30:11;;;;;;;3.63;3.40;;;;;;;14.83;68.42;99184.50;4867455;29;20644;-85
2021/08/29 04:32:38;;;;;;;3.90;3.60;;;;;;;14.88;67.97;99179.13;4852786;29;20366;-82
2021/08/29 04:35:09;;;;;;;3.47;3.27;;;;;;;14.92;68.26;99174.06;4853111;29;20235;-87
2021/08/29 04:37:40;;;;;;;3.70;3.40;;;;;;;14.95;67.52;99162.72;4868404;29;20243;-85
2021/08/29 04:40:12;;;;;;;3.77;3.37;;;;;;;15.07;67.43;99170.66;4878603;29;20330;-83
2021/08/29 04:42:56;;;;;;;3.80;3.50;;;;;;;15.14;66.83;99163.94;4874029;29;20598;-84
2021/08/29 04:45:27;;;;;;;3.63;3.37;;;;;;;15.15;66.59;99162.88;4871196;29;20276;-86
2021/08/29 04:47:57;;;;;;;3.30;3.10;;;;;;;15.28;66.39;99167.81;4856577;29;20252;-84
2021/08/29 04:50:24;;;;;;;3.83;3.53;;;;;;;15.28;66.38;99156.19;4871270;29;20242;-84
2021/08/29 04:52:52;;;;;;;3.50;3.30;;;;;;;15.48;65.81;99161.72;4860555;29;20232;-82
2021/08/29 04:55:26;;;;;;;3.57;3.37;;;;;;;15.51;65.78;99171.19;4903333;29;20223;-84
2021/08/29 04:57:52;;;;;;;3.30;3.10;;;;;;;15.59;65.38;99167.97;4870857;29;20239;-83
2021/08/29 05:00:19;;;;;;;3.30;3.10;;;;;;;15.55;65.19;99156.09;4856667;29;20238;-85
2021/08/29 05:02:48;;;;;;;3.30;3.00;;;;;;;15.62;65.17;99156.69;4871169;29;20233;-83
2021/08/29 05:05:15;;;;;;;3.30;3.00;;;;;;;15.59;64.97;99165.28;4870434;29;20291;-85
2021/08/29 05:07:42;;;;;;;3.47;3.17;;;;;;;15.70;64.85;99162.38;4870635;29;20292;-84
2021/08/29 05:10:09;;;;;;;3.23;2.93;;;;;;;15.71;65.18;99172.13;4866650;29;20233;-88
2021/08/29 05:12:51;;;;;;;3.30;3.10;;;;;;;15.72;64.50;99162.13;4882699;29;20262;-87
2021/08/29 05:15:18;;;;;;;3.47;3.20;;;;;;;15.66;64.81;99165.88;4836752;29;20236;-88
2021/08/29 05:17:45;;;;;;;3.00;2.80;;;;;;;15.72;64.80;99160.22;4852983;29;20277;-88
2021/08/29 05:20:12;;;;;;;2.93;2.70;;;;;;;15.76;64.00;99166.72;4869832;29;20238;-84
2021/08/29 05:22:59;;;;;;;3.33;2.53;;;;;;;15.79;63.95;99166.19;4863512;29;20236;-83
2021/08/29 05:25:56;;;;;;;2.77;2.57;;;;;;;15.80;63.90;99165.13;4889452;29;20270;-87
2021/08/29 05:28:23;;;;;;;2.73;2.53;;;;;;;15.80;63.90;99165.13;4885285;29;20705;-88
2021/08/29 05:30:51;;;;;;;2.80;2.60;;;;;;;15.78;63.92;99161.88;4900456;29;20232;-85
2021/08/29 05:33:18;;;;;;;2.30;2.20;;;;;;;15.80;63.86;99164.31;4885291;29;20309;-88
2021/08/29 05:35:45;;;;;;;2.33;2.23;;;;;;;15.69;64.01;99147.25;4901227;29;20232;-88
2021/08/29 05:38:12;;;;;;;2.90;2.63;;;;;;;15.75;63.83;99154.31;4900347;29;20327;-82
2021/08/29 05:40:58;;;;;;;2.23;2.13;;;;;;;15.83;63.77;99159.19;4885207;29;20232;-85
2021/08/29 05:43:43;;;;;;;2.30;2.10;;;;;;;15.81;63.68;99147.03;4887869;29;20235;-88
2021/08/29 05:46:12;;;;;;;2.60;2.40;;;;;;;15.94;63.75;99172.72;4854996;29;20252;-89
2021/08/29 05:48:39;;;;;;;2.40;2.20;;;;;;;15.96;63.84;99162.47;4885199;29;20228;-82
2021/08/29 05:51:07;;;;;;;2.20;2.10;;;;;;;16.01;63.72;99154.38;4869585;29;20229;-86
2021/08/29 05:53:38;;;;;;;2.50;2.30;;;;;;;15.97;63.57;99148.69;4870071;29;20247;-85
2021/08/29 05:56:04;;;;;;;2.60;2.40;;;;;;;16.05;63.72;99148.16;4869229;29;20235;-89
2021/08/29 05:58:31;;;;;;;2.70;2.50;;;;;;;15.97;64.08;99142.47;4884269;29;20232;-89
2021/08/29 06:01:00;;;;;;;2.50;2.30;;;;;;;16.18;63.15;99146.84;4869544;29;20237;-87
2021/08/29 06:03:31;;;;;;;2.33;2.23;;;;;;;16.25;63.08;99142.81;4861207;29;20238;-88
2021/08/29 06:06:04;;;;;;;2.40;2.20;;;;;;;16.43;62.63;99146.06;4865343;29;20242;-88
2021/08/29 06:08:40;;;;;;;2.50;2.30;;;;;;;16.60;61.96;99146.66;4868091;29;20224;-88
2021/08/29 06:11:08;;;;;;;2.70;2.50;;;;;;;16.65;62.04;99143.97;4850972;29;20248;-89
2021/08/29 06:13:36;;;;;;;2.70;2.40;;;;;;;16.80;61.47;99148.56;4850996;29;20512;-86
2021/08/29 06:16:04;;;;;;;2.33;2.23;;;;;;;17.07;61.14;99144.47;4861787;29;20246;-89
2021/08/29 06:18:31;;;;;;;2.30;2.20;;;;;;;17.29;59.71;99148.75;4869331;29;20590;-86
2021/08/29 06:20:58;;;;;;;2.63;2.43;;;;;;;17.52;59.31;99146.22;4869272;29;20287;-86
2021/08/29 06:23:25;;;;;;;2.10;2.00;;;;;;;17.73;58.78;99141.56;4869080;29;20245;-88
2021/08/29 06:26:10;;;;;;;2.50;2.30;;;;;;;18.05;57.34;99143.88;4886712;29;20253;-86
2021/08/29 06:28:56;;;;;;;2.50;2.30;;;;;;;18.20;56.89;99135.63;4873590;29;20359;-86
2021/08/29 06:31:45;;;;;;;2.60;2.30;;;;;;;18.62;56.35;99155.97;4874859;29;20262;-86
2021/08/29 06:34:24;;;;;;;1.97;1.87;;;;;;;18.66;55.86;99129.91;4900413;29;20234;-88
2021/08/29 06:36:51;;;;;;;2.37;2.27;;;;;;;18.70;56.15;99142.63;4868986;29;20231;-83
2021/08/29 06:39:18;;;;;;;2.53;2.33;;;;;;;18.91;54.78;99148.66;4868930;29;20327;-85
2021/08/29 06:41:45;;;;;;;2.33;2.10;;;;;;;18.76;55.82;99140.66;4868928;29;20226;-88
2021/08/29 06:44:17;;;;;;;2.60;2.10;;;;;;;18.85;55.32;99145.19;4899313;29;20226;-87
2021/08/29 06:47:00;;;;;;;2.00;1.90;;;;;;;18.95;55.18;99149.72;4886234;29;20537;-86
2021/08/29 06:49:50;;;;;;;2.00;1.90;;;;;;;19.01;54.69;99124.13;4869351;29;20227;-86
2021/08/29 06:52:46;;;;;;;2.40;2.20;;;;;;;19.30;54.37;99132.25;4831288;29;20233;-86
2021/08/29 06:55:51;;;;;;;2.50;2.30;;;;;;;19.30;54.06;99145.84;4824712;29;20249;-87
2021/08/29 06:58:37;;;;;;;2.10;2.00;;;;;;;19.45;53.92;99132.13;4821997;29;20653;-85
2021/08/29 07:01:05;;;;;;;3.40;2.10;;;;;;;19.58;53.95;99136.84;4837858;29;20262;-86
2021/08/29 07:03:32;;;;;;;2.00;1.90;;;;;;;19.76;52.76;99146.16;4850187;29;20243;-84
2021/08/29 07:05:59;;;;;;;2.10;1.90;;;;;;;19.76;53.04;99149.69;4864817;29;20223;-88
2021/08/29 07:08:47;;;;;;;2.00;1.90;;;;;;;19.49;53.09;99138.59;4871080;29;20238;-86
2021/08/29 07:11:14;;;;;;;2.30;2.00;;;;;;;19.59;52.32;99129.53;4853055;29;20243;-85
2021/08/29 07:13:50;;;;;;;2.20;2.00;;;;;;;19.67;52.40;99140.56;4870972;29;20234;-89
2021/08/29 07:16:17;;;;;;;2.10;1.97;;;;;;;19.47;52.64;99145.41;4867753;29;20234;-86
2021/08/29 07:18:44;;;;;;;2.30;2.20;;;;;;;19.94;52.05;99142.66;4883978;29;20227;-86
2021/08/29 07:21:23;;;;;;;2.47;2.13;;;;;;;19.81;51.78;99137.94;4885636;29;20234;-85
2021/08/29 07:24:19;;;;;;;2.77;2.30;;;;;;;19.81;52.29;99137.13;4848939;29;20571;-87
2021/08/29 07:27:12;;;;;;;2.43;2.23;;;;;;;19.62;52.97;99145.22;4885094;29;20534;-87
2021/08/29 07:29:57;;;;;;;2.20;2.10;;;;;;;19.81;51.49;99143.38;4882762;29;20238;-87
2021/08/29 07:32:48;;;;;;;2.30;2.10;;;;;;;19.86;51.96;99137.88;4851525;29;20235;-88
2021/08/29 07:35:21;;;;;;;2.57;2.30;;;;;;;19.83;52.30;99138.44;4876068;29;20227;-86
2021/08/29 07:37:57;;;;;;;2.37;2.20;;;;;;;19.90;53.10;99146.25;4869504;29;20253;-84
2021/08/29 07:40:24;;;;;;;2.70;2.47;;;;;;;19.81;51.98;99139.84;4868122;29;20235;-88
2021/08/29 07:42:52;;;;;;;2.37;2.17;;;;;;;20.13;51.76;99145.38;4861284;29;20616;-83
2021/08/29 07:45:19;;;;;;;2.60;2.40;;;;;;;20.22;51.95;99147.16;4862716;29;20636;-84
2021/08/29 07:47:52;;;;;;;2.60;2.40;;;;;;;20.40;51.08;99142.00;4877285;29;20317;-87
2021/08/29 07:50:20;;;;;;;2.60;2.40;;;;;;;20.59;50.86;99148.25;4869612;29;20310;-88
2021/08/29 07:52:47;;;;;;;2.53;2.33;;;;;;;20.11;51.82;99137.50;4853216;29;20662;-86
2021/08/29 07:55:33;;;;;;;2.70;2.50;;;;;;;20.25;51.68;99144.94;4867784;29;20665;-87
2021/08/29 07:58:19;;;;;;;2.63;2.43;;;;;;;20.53;50.52;99136.63;4875928;29;20236;-87
2021/08/29 08:00:50;;;;;;;2.83;2.63;;;;;;;20.56;51.46;99138.78;4857143;29;20235;-86
2021/08/29 08:03:37;;;;;;;2.80;2.60;;;;;;;20.90;51.05;99132.22;4875999;29;20250;-85
2021/08/29 08:06:23;;;;;;;2.77;2.57;;;;;;;21.14;50.10;99146.50;4888345;29;20611;-87
2021/08/29 08:09:08;;;;;;;2.80;2.60;;;;;;;20.73;49.50;99138.22;4876514;29;20261;-86
2021/08/29 08:11:54;;;;;;;2.63;2.53;;;;;;;21.24;49.68;99142.78;4876461;29;20238;-84
2021/08/29 08:14:21;;;;;;;2.60;2.40;;;;;;;21.18;50.36;99147.56;4855366;29;20583;-84
2021/08/29 08:16:49;;;;;;;2.67;2.40;;;;;;;21.42;48.42;99148.16;4871301;29;20349;-83
2021/08/29 08:19:38;;;;;;;2.40;2.30;;;;;;;21.43;47.93;99154.41;4861936;29;20535;-86
2021/08/29 08:22:06;;;;;;;3.07;2.70;;;;;;;21.56;47.18;99152.84;4870496;29;20235;-86
2021/08/29 08:24:53;;;;;;;2.73;2.53;;;;;;;21.55;47.65;99159.38;4888322;29;20234;-85
2021/08/29 08:27:39;;;;;;;2.67;2.47;;;;;;;21.24;48.71;99138.16;4876215;29;20252;-87
2021/08/29 08:30:24;;;;;;;3.00;2.80;;;;;;;21.40;48.49;99139.50;4888398;29;20237;-86
2021/08/29 08:33:09;;;;;;;2.90;2.70;;;;;;;21.11;49.63;99144.38;4875973;29;20291;-86
2021/08/29 08:35:55;;;;;;;2.87;2.67;;;;;;;21.06;48.83;99141.72;4888979;29;20238;-88
2021/08/29 08:38:51;;;;;;;3.17;2.80;;;;;;;21.39;48.78;99142.50;4892477;29;20234;-88
2021/08/29 08:41:41;;;;;;;3.00;2.80;;;;;;;21.70;48.19;99146.25;4873940;29;20231;-83
2021/08/29 08:44:44;;;;;;;2.53;2.30;;;;;;;21.80;48.17;99142.50;4843756;29;20237;-86
2021/08/29 08:47:31;;;;;;;2.87;2.67;;;;;;;21.09;48.46;99150.09;4883660;29;20306;-86
2021/08/29 08:50:16;;;;;;;2.77;2.57;;;;;;;21.22;49.27;99154.00;4887275;29;20226;-84
2021/08/29 08:53:03;;;;;;;2.83;2.63;;;;;;;21.03;47.87;99126.81;4868960;29;20234;-86
2021/08/29 08:55:51;;;;;;;2.90;2.70;;;;;;;21.34;48.86;99124.34;4884084;29;20231;-87
2021/08/29 08:58:53;;;;;;;2.90;2.70;;;;;;;21.48;47.76;99130.59;4889356;29;20945;-87
2021/08/29 09:01:40;;;;;;;3.10;2.90;;;;;;;21.51;47.48;99137.34;4856624;29;20241;-83
2021/08/29 09:04:23;;;;;;;3.00;2.80;;;;;;;22.00;47.12;99131.19;4887374;29;20234;-84
2021/08/29 09:06:50;;;;;;;2.97;2.77;;;;;;;22.16;46.75;99131.66;4853722;29;20247;-83
2021/08/29 09:09:23;;;;;;;2.73;2.50;;;;;;;22.19;45.64;99123.66;4886675;29;20227;-84
2021/08/29 09:11:50;;;;;;;3.13;2.93;;;;;;;21.63;46.45;99129.50;4885331;29;20314;-86
2021/08/29 09:14:17;;;;;;;2.90;2.70;;;;;;;22.08;45.91;99129.66;4899138;29;20231;-88
2021/08/29 09:16:50;;;;;;;2.90;2.70;;;;;;;22.39;45.55;99127.84;4869891;29;20362;-85
2021/08/29 09:19:21;;;;;;;2.80;2.60;;;;;;;22.18;45.24;99121.25;4870063;29;20235;-87
2021/08/29 09:21:48;;;;;;;2.73;2.53;;;;;;;21.98;45.73;99122.50;4866540;29;20228;-87
2021/08/29 09:24:28;;;;;;;2.77;2.50;;;;;;;22.49;44.68;99132.28;4885791;29;20240;-85
2021/08/29 09:27:05;;;;;;;2.87;2.60;;;;;;;22.57;44.94;99118.69;4886305;29;20351;-85
2021/08/29 09:29:47;;;;;;;2.97;2.63;;;;;;;22.71;44.96;99119.44;4886916;29;20517;-86
2021/08/29 09:32:19;;;;;;;2.70;2.50;;;;;;;22.76;44.72;99113.88;4869046;29;20235;-86
2021/08/29 09:35:08;;;;;;;2.57;2.47;;;;;;;22.74;44.14;99113.34;4875426;29;20231;-86
2021/08/29 09:38:11;;;;;;;2.93;2.53;;;;;;;22.55;44.42;99131.81;4878047;29;20326;-86
2021/08/29 09:41:00;;;;;;;2.90;2.70;;;;;;;22.46;45.15;99117.31;4872059;29;20234;-85
2021/08/29 09:43:51;;;;;;;3.00;2.80;;;;;;;21.93;45.63;99125.34;4887583;29;20235;-86
2021/08/29 09:46:20;;;;;;;2.60;2.50;;;;;;;21.82;46.20;99108.38;4867995;29;20231;-82
2021/08/29 09:49:06;;;;;;;2.97;2.77;;;;;;;21.79;46.59;99108.19;4856433;29;20238;-86
2021/08/29 09:52:04;;;;;;;3.10;2.90;;;;;;;22.14;46.39;99107.41;4865413;29;20235;-85
2021/08/29 09:54:43;;;;;;;2.80;2.60;;;;;;;22.24;45.10;99109.91;4880578;29;20231;-86
2021/08/29 09:57:31;;;;;;;2.73;2.53;;;;;;;22.44;45.57;99108.63;4883353;29;20319;-85
2021/08/29 10:00:17;;;;;;;2.63;2.50;;;;;;;22.01;45.43;99110.19;4884280;29;20352;-87
2021/08/29 10:03:10;;;;;;;3.50;2.60;;;;;;;22.05;45.85;99108.44;4884935;29;20227;-87
2021/08/29 10:05:47;;;;;;;2.80;2.60;;;;;;;22.18;45.46;99104.88;4883774;29;20244;-86
2021/08/29 10:08:13;;;;;;;2.70;2.50;;;;;;;22.60;44.13;99101.66;4883632;29;20239;-83
2021/08/29 10:10:48;;;;;;;2.73;2.53;;;;;;;22.88;44.33;99099.63;4870055;29;20757;-85
2021/08/29 10:13:20;;;;;;;2.70;2.50;;;;;;;22.70;43.98;99081.53;4870034;29;20709;-86
2021/08/29 10:16:05;;;;;;;2.90;2.70;;;;;;;22.55;44.99;99100.97;4896779;29;20230;-84
2021/08/29 10:18:53;;;;;;;3.00;2.77;;;;;;;22.39;44.85;99104.09;4886350;29;20234;-87
2021/08/29 10:21:47;;;;;;;3.03;2.80;;;;;;;22.91;44.82;99095.47;4861709;29;20239;-86
2021/08/29 10:24:14;;;;;;;2.90;2.70;;;;;;;22.81;43.86;99099.28;4883742;29;20231;-85
2021/08/29 10:26:42;;;;;;;2.67;2.47;;;;;;;22.90;42.94;99091.13;4868193;29;20640;-86
2021/08/29 10:29:28;;;;;;;2.80;2.60;;;;;;;22.69;42.85;99071.69;4885961;29;20543;-85
2021/08/29 10:32:09;;;;;;;2.80;2.60;;;;;;;22.80;43.65;99087.53;4884951;29;20332;-83
2021/08/29 10:34:41;;;;;;;2.90;2.70;;;;;;;22.81;44.37;99080.97;4854327;29;20652;-82
2021/08/29 10:37:09;;;;;;;2.73;2.53;;;;;;;22.69;43.91;99094.34;4883306;29;20231;-86
2021/08/29 10:39:54;;;;;;;3.10;2.90;;;;;;;22.43;44.23;99084.38;4886635;29;20238;-86
2021/08/29 10:42:43;;;;;;;3.00;2.80;;;;;;;22.80;43.96;99087.53;4885756;29;20339;-86
2021/08/29 10:45:30;;;;;;;3.30;3.00;;;;;;;23.11;43.68;99084.78;4885953;29;20230;-85
2021/08/29 10:47:57;;;;;;;3.27;3.07;;;;;;;23.42;43.15;99087.50;4899619;29;20248;-84
2021/08/29 10:50:50;;;;;;;3.17;2.93;;;;;;;23.28;43.25;99075.88;4882204;29;20233;-86
2021/08/29 10:53:29;;;;;;;3.03;2.80;;;;;;;23.03;43.51;99077.38;4898981;29;20314;-84
2021/08/29 10:56:15;;;;;;;4.13;3.00;;;;;;;22.50;44.81;99080.06;4867347;29;20664;-82
2021/08/29 10:58:48;;;;;;;3.40;3.20;;;;;;;23.08;44.34;99073.69;4883375;29;20229;-84
2021/08/29 11:01:37;;;;;;;3.67;3.13;;;;;;;23.10;44.22;99066.78;4852861;29;20243;-83
2021/08/29 11:04:26;;;;;;;3.10;2.90;;;;;;;23.07;43.79;99070.16;4885260;29;20233;-86
2021/08/29 11:07:06;;;;;;;3.57;2.80;;;;;;;22.69;44.96;99056.09;4883153;29;20233;-83
2021/08/29 11:09:40;;;;;;;3.30;3.00;;;;;;;22.80;44.23;99062.97;4884414;29;20232;-85
2021/08/29 11:12:15;;;;;;;3.13;2.93;;;;;;;22.79;44.13;99047.69;4882310;29;20526;-86
2021/08/29 11:14:49;;;;;;;3.63;3.33;;;;;;;23.19;44.36;99053.97;4882600;29;20236;-86
2021/08/29 11:17:18;;;;;;;3.00;2.80;;;;;;;22.83;44.25;99051.41;4867539;29;20599;-85
2021/08/29 11:20:16;;;;;;;3.10;2.90;;;;;;;23.26;42.87;99048.84;4870171;29;20329;-85
2021/08/29 11:23:01;;;;;;;2.57;2.47;;;;;;;23.42;42.34;99043.75;4885413;29;20327;-85
2021/08/29 11:25:46;;;;;;;2.70;2.50;;;;;;;23.50;42.78;99053.13;4861286;29;20245;-84
2021/08/29 11:28:51;;;;;;;2.93;2.70;;;;;;;23.29;42.86;99050.13;4853315;29;20244;-84
2021/08/29 11:31:51;;;;;;;2.70;2.50;;;;;;;23.66;41.99;99046.88;4840681;29;20239;-84
2021/08/29 11:34:20;;;;;;;3.47;2.80;;;;;;;23.75;41.98;99040.63;4861028;29;20677;-84
2021/08/29 11:36:47;;;;;;;2.60;2.40;;;;;;;23.41;41.91;99052.28;4845741;29;20238;-85
2021/08/29 11:39:40;;;;;;;2.20;2.10;;;;;;;23.67;41.15;99043.03;4861232;29;20237;-85
2021/08/29 11:42:21;;;;;;;2.40;2.30;;;;;;;23.86;41.50;99044.66;4876287;29;21196;-86
2021/08/29 11:44:58;;;;;;;2.60;2.40;;;;;;;23.77;41.55;99046.56;4876780;29;20235;-83
2021/08/29 11:47:35;;;;;;;2.00;1.90;;;;;;;23.89;40.43;99063.19;4845911;29;20235;-84
2021/08/29 11:50:09;;;;;;;2.37;2.27;;;;;;;23.93;40.08;99053.19;4855961;29;20290;-85
2021/08/29 11:52:57;;;;;;;2.20;2.00;;;;;;;23.48;40.77;99020.63;4848239;29;20670;-84
2021/08/29 11:55:24;;;;;;;2.00;1.90;;;;;;;23.31;41.17;99045.16;4861163;29;20243;-85
2021/08/29 11:57:55;;;;;;;2.10;2.00;;;;;;;23.29;41.00;99025.53;4831609;29;20239;-85
2021/08/29 12:00:25;;;;;;;1.87;1.77;;;;;;;23.90;40.39;99045.59;4860751;29;20305;-85
2021/08/29 12:03:07;;;;;;;3.53;1.90;;;;;;;23.70;40.81;99050.56;4861103;29;20254;-85
2021/08/29 12:05:35;;;;;;;3.03;2.07;;;;;;;23.92;40.09;99043.38;4830608;29;20695;-83
2021/08/29 12:08:27;;;;;;;2.20;2.10;;;;;;;23.92;39.84;99044.19;4847800;29;20238;-85
2021/08/29 12:11:13;;;;;;;2.43;2.00;;;;;;;23.80;40.37;99046.72;4874502;29;20382;-85
2021/08/29 12:14:20;;;;;;;2.13;1.93;;;;;;;23.40;41.20;99056.94;4864335;29;20314;-85